Terminal Aerodrome Forecast
Issued by NWS

Home | Current Version | Previous Version | Text Only | Print | Product List | Glossary On
Versions: 1 2 3 4 5 6 7 8 9 10 11 12 13 14 15 16 17 18 19 20 21 22 23 24 25 26 27
000
FTUS43 KLSX 301258 AAB
TAFCPS
TAF AMD
KCPS 301258Z 3013/0112 12008KT P6SM VCSH OVC006
     FM301500 14012G20KT P6SM OVC010
     FM301800 18010KT P6SM SCT015 OVC040
     FM010000 22005KT P6SM VCTS SCT040CB
     FM010300 27005KT P6SM SCT040=

USA.gov is the U.S. government's official web portal to all federal, state and local government web resources and services.